sensor_id;sensor_type;location;lat;lon;timestamp;P1;durP1;ratioP1;P2;durP2;ratioP2
50815;SDS011;39717;47.324;8.788;2023-04-21T00:01:16;16.17;;;10.67;;
50815;SDS011;39717;47.324;8.788;2023-04-21T00:03:42;14.73;;;10.57;;
50815;SDS011;39717;47.324;8.788;2023-04-21T00:06:08;15.20;;;10.33;;
50815;SDS011;39717;47.324;8.788;2023-04-21T00:08:35;14.93;;;11.07;;
50815;SDS011;39717;47.324;8.788;2023-04-21T00:11:07;19.73;;;12.23;;
50815;SDS011;39717;47.324;8.788;2023-04-21T00:13:34;16.27;;;11.03;;
50815;SDS011;39717;47.324;8.788;2023-04-21T00:16:01;19.90;;;12.80;;
50815;SDS011;39717;47.324;8.788;2023-04-21T00:18:27;20.07;;;12.63;;
50815;SDS011;39717;47.324;8.788;2023-04-21T00:20:53;27.07;;;14.27;;
50815;SDS011;39717;47.324;8.788;2023-04-21T00:23:20;28.33;;;14.30;;
50815;SDS011;39717;47.324;8.788;2023-04-21T00:25:46;33.57;;;13.77;;
50815;SDS011;39717;47.324;8.788;2023-04-21T00:28:12;18.70;;;12.90;;
50815;SDS011;39717;47.324;8.788;2023-04-21T00:30:38;20.13;;;12.57;;
50815;SDS011;39717;47.324;8.788;2023-04-21T00:33:04;21.10;;;12.60;;
50815;SDS011;39717;47.324;8.788;2023-04-21T00:35:30;18.40;;;12.53;;
50815;SDS011;39717;47.324;8.788;2023-04-21T00:37:57;20.37;;;12.43;;
50815;SDS011;39717;47.324;8.788;2023-04-21T00:40:23;20.63;;;12.77;;
50815;SDS011;39717;47.324;8.788;2023-04-21T00:42:49;16.57;;;12.40;;
50815;SDS011;39717;47.324;8.788;2023-04-21T00:45:15;17.73;;;11.17;;
50815;SDS011;39717;47.324;8.788;2023-04-21T00:47:41;18.13;;;11.27;;
50815;SDS011;39717;47.324;8.788;2023-04-21T00:50:08;16.60;;;11.43;;
50815;SDS011;39717;47.324;8.788;2023-04-21T00:52:34;17.57;;;10.70;;
50815;SDS011;39717;47.324;8.788;2023-04-21T00:55:02;15.60;;;11.03;;
50815;SDS011;39717;47.324;8.788;2023-04-21T00:57:29;16.40;;;11.00;;
50815;SDS011;39717;47.324;8.788;2023-04-21T00:59:56;19.23;;;11.80;;
50815;SDS011;39717;47.324;8.788;2023-04-21T01:02:22;16.73;;;11.27;;
50815;SDS011;39717;47.324;8.788;2023-04-21T01:04:49;17.37;;;11.80;;
50815;SDS011;39717;47.324;8.788;2023-04-21T01:07:15;18.43;;;11.90;;
50815;SDS011;39717;47.324;8.788;2023-04-21T01:09:41;15.93;;;10.70;;
50815;SDS011;39717;47.324;8.788;2023-04-21T01:12:08;16.07;;;11.07;;
50815;SDS011;39717;47.324;8.788;2023-04-21T01:14:35;16.43;;;11.00;;
50815;SDS011;39717;47.324;8.788;2023-04-21T01:17:02;15.87;;;11.30;;
50815;SDS011;39717;47.324;8.788;2023-04-21T01:19:36;17.60;;;11.97;;
50815;SDS011;39717;47.324;8.788;2023-04-21T01:22:05;15.47;;;11.30;;
50815;SDS011;39717;47.324;8.788;2023-04-21T01:24:39;15.57;;;10.97;;
50815;SDS011;39717;47.324;8.788;2023-04-21T01:27:10;16.03;;;11.17;;
50815;SDS011;39717;47.324;8.788;2023-04-21T01:29:37;15.57;;;11.67;;
50815;SDS011;39717;47.324;8.788;2023-04-21T01:32:07;15.07;;;11.20;;
50815;SDS011;39717;47.324;8.788;2023-04-21T01:34:34;17.43;;;12.00;;
50815;SDS011;39717;47.324;8.788;2023-04-21T01:37:00;16.30;;;11.37;;
50815;SDS011;39717;47.324;8.788;2023-04-21T01:39:27;15.27;;;10.83;;
50815;SDS011;39717;47.324;8.788;2023-04-21T01:41:53;14.87;;;11.00;;
50815;SDS011;39717;47.324;8.788;2023-04-21T01:44:22;14.23;;;10.30;;
50815;SDS011;39717;47.324;8.788;2023-04-21T01:46:49;13.20;;;10.13;;
50815;SDS011;39717;47.324;8.788;2023-04-21T01:49:16;13.63;;;9.67;;
50815;SDS011;39717;47.324;8.788;2023-04-21T01:51:42;13.20;;;9.10;;
50815;SDS011;39717;47.324;8.788;2023-04-21T01:54:08;12.87;;;9.00;;
50815;SDS011;39717;47.324;8.788;2023-04-21T01:56:34;14.03;;;8.97;;
50815;SDS011;39717;47.324;8.788;2023-04-21T01:59:00;13.27;;;9.97;;
50815;SDS011;39717;47.324;8.788;2023-04-21T02:01:28;14.23;;;9.07;;
50815;SDS011;39717;47.324;8.788;2023-04-21T02:03:54;14.40;;;9.70;;
50815;SDS011;39717;47.324;8.788;2023-04-21T02:06:20;14.73;;;10.40;;
50815;SDS011;39717;47.324;8.788;2023-04-21T02:08:46;16.00;;;10.47;;
50815;SDS011;39717;47.324;8.788;2023-04-21T02:11:12;14.80;;;10.00;;
50815;SDS011;39717;47.324;8.788;2023-04-21T02:13:39;14.77;;;10.03;;
50815;SDS011;39717;47.324;8.788;2023-04-21T02:16:05;14.13;;;9.83;;
50815;SDS011;39717;47.324;8.788;2023-04-21T02:18:31;14.00;;;9.87;;
50815;SDS011;39717;47.324;8.788;2023-04-21T02:20:58;19.77;;;10.60;;
50815;SDS011;39717;47.324;8.788;2023-04-21T02:23:24;12.87;;;9.70;;
50815;SDS011;39717;47.324;8.788;2023-04-21T02:25:50;13.03;;;9.90;;
50815;SDS011;39717;47.324;8.788;2023-04-21T02:28:17;12.77;;;9.27;;
50815;SDS011;39717;47.324;8.788;2023-04-21T02:30:43;12.87;;;9.87;;
50815;SDS011;39717;47.324;8.788;2023-04-21T02:33:09;16.20;;;10.17;;
50815;SDS011;39717;47.324;8.788;2023-04-21T02:35:35;13.93;;;9.97;;
50815;SDS011;39717;47.324;8.788;2023-04-21T02:38:01;16.23;;;10.70;;
50815;SDS011;39717;47.324;8.788;2023-04-21T02:40:31;14.20;;;10.03;;
50815;SDS011;39717;47.324;8.788;2023-04-21T02:42:57;14.07;;;10.03;;
50815;SDS011;39717;47.324;8.788;2023-04-21T02:45:24;12.20;;;9.57;;
50815;SDS011;39717;47.324;8.788;2023-04-21T02:47:50;13.80;;;10.03;;
50815;SDS011;39717;47.324;8.788;2023-04-21T02:50:16;13.43;;;10.50;;
50815;SDS011;39717;47.324;8.788;2023-04-21T02:52:42;15.67;;;10.93;;
50815;SDS011;39717;47.324;8.788;2023-04-21T02:55:08;13.17;;;10.20;;
50815;SDS011;39717;47.324;8.788;2023-04-21T02:57:35;14.60;;;10.53;;
50815;SDS011;39717;47.324;8.788;2023-04-21T03:00:01;13.97;;;10.93;;
50815;SDS011;39717;47.324;8.788;2023-04-21T03:02:28;15.07;;;10.97;;
50815;SDS011;39717;47.324;8.788;2023-04-21T03:04:55;16.37;;;10.77;;
50815;SDS011;39717;47.324;8.788;2023-04-21T03:07:21;15.83;;;11.17;;
50815;SDS011;39717;47.324;8.788;2023-04-21T03:09:47;16.50;;;11.70;;
50815;SDS011;39717;47.324;8.788;2023-04-21T03:12:13;17.13;;;11.43;;
50815;SDS011;39717;47.324;8.788;2023-04-21T03:14:39;16.00;;;11.93;;
50815;SDS011;39717;47.324;8.788;2023-04-21T03:17:06;15.20;;;11.10;;
50815;SDS011;39717;47.324;8.788;2023-04-21T03:19:32;14.47;;;11.37;;
50815;SDS011;39717;47.324;8.788;2023-04-21T03:21:58;14.40;;;11.30;;
50815;SDS011;39717;47.324;8.788;2023-04-21T03:24:25;16.03;;;11.07;;
50815;SDS011;39717;47.324;8.788;2023-04-21T03:26:51;15.57;;;11.27;;
50815;SDS011;39717;47.324;8.788;2023-04-21T03:29:18;15.90;;;11.83;;
50815;SDS011;39717;47.324;8.788;2023-04-21T03:31:44;17.30;;;12.63;;
50815;SDS011;39717;47.324;8.788;2023-04-21T03:34:10;17.73;;;12.63;;
50815;SDS011;39717;47.324;8.788;2023-04-21T03:36:36;18.63;;;13.00;;
50815;SDS011;39717;47.324;8.788;2023-04-21T03:39:02;23.10;;;14.03;;
50815;SDS011;39717;47.324;8.788;2023-04-21T03:41:28;23.53;;;13.50;;
50815;SDS011;39717;47.324;8.788;2023-04-21T03:43:54;21.90;;;15.00;;
50815;SDS011;39717;47.324;8.788;2023-04-21T03:46:21;18.17;;;13.43;;
50815;SDS011;39717;47.324;8.788;2023-04-21T03:48:47;19.83;;;12.10;;
50815;SDS011;39717;47.324;8.788;2023-04-21T03:51:13;21.30;;;13.33;;
50815;SDS011;39717;47.324;8.788;2023-04-21T03:53:40;26.63;;;15.23;;
50815;SDS011;39717;47.324;8.788;2023-04-21T03:56:06;45.50;;;17.43;;
50815;SDS011;39717;47.324;8.788;2023-04-21T03:58:32;40.50;;;16.90;;
50815;SDS011;39717;47.324;8.788;2023-04-21T04:00:59;53.23;;;18.13;;
50815;SDS011;39717;47.324;8.788;2023-04-21T04:03:25;86.73;;;21.40;;
50815;SDS011;39717;47.324;8.788;2023-04-21T04:05:51;82.70;;;23.57;;
50815;SDS011;39717;47.324;8.788;2023-04-21T04:08:17;74.97;;;20.93;;
50815;SDS011;39717;47.324;8.788;2023-04-21T04:10:44;35.40;;;17.37;;
50815;SDS011;39717;47.324;8.788;2023-04-21T04:13:10;68.20;;;20.17;;
50815;SDS011;39717;47.324;8.788;2023-04-21T04:15:36;118.33;;;22.47;;
50815;SDS011;39717;47.324;8.788;2023-04-21T04:18:02;154.33;;;28.10;;
50815;SDS011;39717;47.324;8.788;2023-04-21T04:20:28;56.43;;;19.77;;
50815;SDS011;39717;47.324;8.788;2023-04-21T04:22:54;73.20;;;18.60;;
50815;SDS011;39717;47.324;8.788;2023-04-21T04:25:21;226.03;;;32.57;;
50815;SDS011;39717;47.324;8.788;2023-04-21T04:27:47;66.80;;;18.97;;
50815;SDS011;39717;47.324;8.788;2023-04-21T04:30:14;66.27;;;18.97;;
50815;SDS011;39717;47.324;8.788;2023-04-21T04:32:40;77.83;;;19.37;;
50815;SDS011;39717;47.324;8.788;2023-04-21T04:35:08;126.00;;;22.93;;
50815;SDS011;39717;47.324;8.788;2023-04-21T04:37:37;59.00;;;17.77;;
50815;SDS011;39717;47.324;8.788;2023-04-21T04:40:05;38.03;;;17.53;;
50815;SDS011;39717;47.324;8.788;2023-04-21T04:42:36;74.77;;;18.17;;
50815;SDS011;39717;47.324;8.788;2023-04-21T04:45:04;44.20;;;17.13;;
50815;SDS011;39717;47.324;8.788;2023-04-21T04:47:33;154.13;;;24.37;;
50815;SDS011;39717;47.324;8.788;2023-04-21T04:49:59;291.20;;;37.20;;
50815;SDS011;39717;47.324;8.788;2023-04-21T04:52:25;250.60;;;30.90;;
50815;SDS011;39717;47.324;8.788;2023-04-21T04:54:51;327.90;;;34.73;;
50815;SDS011;39717;47.324;8.788;2023-04-21T04:57:17;44.90;;;16.03;;
50815;SDS011;39717;47.324;8.788;2023-04-21T04:59:44;45.17;;;18.07;;
50815;SDS011;39717;47.324;8.788;2023-04-21T05:02:11;181.30;;;31.03;;
50815;SDS011;39717;47.324;8.788;2023-04-21T05:04:37;45.17;;;17.37;;
50815;SDS011;39717;47.324;8.788;2023-04-21T05:07:04;46.93;;;16.07;;
50815;SDS011;39717;47.324;8.788;2023-04-21T05:09:32;45.40;;;16.43;;
50815;SDS011;39717;47.324;8.788;2023-04-21T05:11:58;119.50;;;18.90;;
50815;SDS011;39717;47.324;8.788;2023-04-21T05:14:25;258.33;;;32.90;;
50815;SDS011;39717;47.324;8.788;2023-04-21T05:16:51;29.03;;;15.30;;
50815;SDS011;39717;47.324;8.788;2023-04-21T05:19:17;88.33;;;20.67;;
50815;SDS011;39717;47.324;8.788;2023-04-21T05:21:44;113.33;;;20.40;;
50815;SDS011;39717;47.324;8.788;2023-04-21T05:24:10;297.83;;;35.63;;
50815;SDS011;39717;47.324;8.788;2023-04-21T05:26:36;108.67;;;18.10;;
50815;SDS011;39717;47.324;8.788;2023-04-21T05:29:02;169.57;;;26.87;;
50815;SDS011;39717;47.324;8.788;2023-04-21T05:31:28;111.67;;;22.07;;
50815;SDS011;39717;47.324;8.788;2023-04-21T05:33:54;51.30;;;15.77;;
50815;SDS011;39717;47.324;8.788;2023-04-21T05:36:20;131.27;;;23.90;;
50815;SDS011;39717;47.324;8.788;2023-04-21T05:38:48;106.37;;;21.17;;
50815;SDS011;39717;47.324;8.788;2023-04-21T05:41:15;172.93;;;21.87;;
50815;SDS011;39717;47.324;8.788;2023-04-21T05:43:41;128.53;;;20.33;;
50815;SDS011;39717;47.324;8.788;2023-04-21T05:46:08;228.30;;;27.47;;
50815;SDS011;39717;47.324;8.788;2023-04-21T05:48:35;176.23;;;22.33;;
50815;SDS011;39717;47.324;8.788;2023-04-21T05:51:11;128.97;;;19.40;;
50815;SDS011;39717;47.324;8.788;2023-04-21T05:53:38;73.43;;;13.47;;
50815;SDS011;39717;47.324;8.788;2023-04-21T05:56:04;50.20;;;12.50;;
50815;SDS011;39717;47.324;8.788;2023-04-21T05:58:32;136.53;;;19.70;;
50815;SDS011;39717;47.324;8.788;2023-04-21T06:00:58;42.50;;;12.47;;
50815;SDS011;39717;47.324;8.788;2023-04-21T06:03:25;63.43;;;15.10;;
50815;SDS011;39717;47.324;8.788;2023-04-21T06:05:54;84.00;;;14.93;;
50815;SDS011;39717;47.324;8.788;2023-04-21T06:08:21;124.13;;;19.80;;
50815;SDS011;39717;47.324;8.788;2023-04-21T06:10:47;63.30;;;16.03;;
50815;SDS011;39717;47.324;8.788;2023-04-21T06:13:13;73.23;;;16.07;;
50815;SDS011;39717;47.324;8.788;2023-04-21T06:15:39;101.17;;;16.33;;
50815;SDS011;39717;47.324;8.788;2023-04-21T06:18:05;130.03;;;22.27;;
50815;SDS011;39717;47.324;8.788;2023-04-21T06:20:31;103.00;;;17.67;;
50815;SDS011;39717;47.324;8.788;2023-04-21T06:22:58;235.60;;;25.20;;
50815;SDS011;39717;47.324;8.788;2023-04-21T06:25:24;287.90;;;28.60;;
50815;SDS011;39717;47.324;8.788;2023-04-21T06:27:50;258.87;;;30.23;;
50815;SDS011;39717;47.324;8.788;2023-04-21T06:30:16;187.27;;;25.10;;
50815;SDS011;39717;47.324;8.788;2023-04-21T06:32:42;168.03;;;24.00;;
50815;SDS011;39717;47.324;8.788;2023-04-21T06:35:13;58.17;;;16.27;;
50815;SDS011;39717;47.324;8.788;2023-04-21T06:37:42;95.60;;;17.57;;
50815;SDS011;39717;47.324;8.788;2023-04-21T06:40:08;64.30;;;15.93;;
50815;SDS011;39717;47.324;8.788;2023-04-21T06:42:36;173.97;;;27.43;;
50815;SDS011;39717;47.324;8.788;2023-04-21T06:45:02;37.40;;;15.93;;
50815;SDS011;39717;47.324;8.788;2023-04-21T06:47:28;90.47;;;18.40;;
50815;SDS011;39717;47.324;8.788;2023-04-21T06:49:54;54.77;;;15.80;;
50815;SDS011;39717;47.324;8.788;2023-04-21T06:52:20;70.03;;;16.23;;
50815;SDS011;39717;47.324;8.788;2023-04-21T06:54:47;67.33;;;17.20;;
50815;SDS011;39717;47.324;8.788;2023-04-21T06:57:13;72.63;;;16.80;;
50815;SDS011;39717;47.324;8.788;2023-04-21T06:59:39;89.30;;;17.90;;
50815;SDS011;39717;47.324;8.788;2023-04-21T07:02:06;32.47;;;16.13;;
50815;SDS011;39717;47.324;8.788;2023-04-21T07:04:32;35.10;;;14.97;;
50815;SDS011;39717;47.324;8.788;2023-04-21T07:06:58;24.93;;;15.83;;
50815;SDS011;39717;47.324;8.788;2023-04-21T07:09:24;29.43;;;15.27;;
50815;SDS011;39717;47.324;8.788;2023-04-21T07:11:53;39.93;;;15.33;;
50815;SDS011;39717;47.324;8.788;2023-04-21T07:14:20;25.23;;;14.83;;
50815;SDS011;39717;47.324;8.788;2023-04-21T07:16:46;27.23;;;15.87;;
50815;SDS011;39717;47.324;8.788;2023-04-21T07:19:12;30.33;;;15.73;;
50815;SDS011;39717;47.324;8.788;2023-04-21T07:21:38;23.10;;;15.20;;
50815;SDS011;39717;47.324;8.788;2023-04-21T07:24:04;25.83;;;16.33;;
50815;SDS011;39717;47.324;8.788;2023-04-21T07:26:30;24.20;;;14.30;;
50815;SDS011;39717;47.324;8.788;2023-04-21T07:28:58;31.30;;;13.03;;
50815;SDS011;39717;47.324;8.788;2023-04-21T07:31:24;23.10;;;12.10;;
50815;SDS011;39717;47.324;8.788;2023-04-21T07:33:50;23.63;;;12.30;;
50815;SDS011;39717;47.324;8.788;2023-04-21T07:36:17;19.27;;;12.50;;
50815;SDS011;39717;47.324;8.788;2023-04-21T07:38:43;21.27;;;12.60;;
50815;SDS011;39717;47.324;8.788;2023-04-21T07:41:09;19.87;;;12.40;;
50815;SDS011;39717;47.324;8.788;2023-04-21T07:43:36;15.47;;;11.10;;
50815;SDS011;39717;47.324;8.788;2023-04-21T07:46:02;16.53;;;12.00;;
50815;SDS011;39717;47.324;8.788;2023-04-21T07:48:28;18.83;;;12.37;;
50815;SDS011;39717;47.324;8.788;2023-04-21T07:50:54;18.77;;;12.20;;
50815;SDS011;39717;47.324;8.788;2023-04-21T07:53:23;16.93;;;11.70;;
50815;SDS011;39717;47.324;8.788;2023-04-21T07:55:49;17.07;;;11.97;;
50815;SDS011;39717;47.324;8.788;2023-04-21T07:58:15;15.47;;;10.97;;
50815;SDS011;39717;47.324;8.788;2023-04-21T08:00:41;16.93;;;10.70;;
50815;SDS011;39717;47.324;8.788;2023-04-21T08:03:07;16.50;;;10.57;;
50815;SDS011;39717;47.324;8.788;2023-04-21T08:05:33;14.80;;;10.80;;
50815;SDS011;39717;47.324;8.788;2023-04-21T08:08:00;14.43;;;10.90;;
50815;SDS011;39717;47.324;8.788;2023-04-21T08:10:25;14.77;;;11.30;;
50815;SDS011;39717;47.324;8.788;2023-04-21T08:12:51;15.23;;;10.70;;
50815;SDS011;39717;47.324;8.788;2023-04-21T08:15:17;13.97;;;10.73;;
50815;SDS011;39717;47.324;8.788;2023-04-21T08:17:43;15.83;;;10.60;;
50815;SDS011;39717;47.324;8.788;2023-04-21T08:20:10;14.80;;;10.77;;
50815;SDS011;39717;47.324;8.788;2023-04-21T08:22:35;14.37;;;10.87;;
50815;SDS011;39717;47.324;8.788;2023-04-21T08:25:02;12.63;;;9.60;;
50815;SDS011;39717;47.324;8.788;2023-04-21T08:27:28;13.23;;;10.27;;
50815;SDS011;39717;47.324;8.788;2023-04-21T08:29:54;13.00;;;10.67;;
50815;SDS011;39717;47.324;8.788;2023-04-21T08:32:20;12.80;;;9.90;;
50815;SDS011;39717;47.324;8.788;2023-04-21T08:34:50;12.77;;;10.33;;
50815;SDS011;39717;47.324;8.788;2023-04-21T08:37:18;12.37;;;10.00;;
50815;SDS011;39717;47.324;8.788;2023-04-21T08:39:45;13.43;;;10.53;;
50815;SDS011;39717;47.324;8.788;2023-04-21T08:42:15;12.57;;;10.07;;
50815;SDS011;39717;47.324;8.788;2023-04-21T08:44:43;13.27;;;10.23;;
50815;SDS011;39717;47.324;8.788;2023-04-21T08:47:10;13.97;;;11.00;;
50815;SDS011;39717;47.324;8.788;2023-04-21T08:49:37;13.83;;;9.93;;
50815;SDS011;39717;47.324;8.788;2023-04-21T08:52:05;13.60;;;10.70;;
50815;SDS011;39717;47.324;8.788;2023-04-21T08:54:32;11.57;;;9.70;;
50815;SDS011;39717;47.324;8.788;2023-04-21T08:57:00;11.53;;;9.50;;
50815;SDS011;39717;47.324;8.788;2023-04-21T08:59:30;14.03;;;11.10;;
50815;SDS011;39717;47.324;8.788;2023-04-21T09:02:13;13.67;;;10.13;;
50815;SDS011;39717;47.324;8.788;2023-04-21T09:04:41;11.43;;;8.23;;
50815;SDS011;39717;47.324;8.788;2023-04-21T09:07:28;11.50;;;9.03;;
50815;SDS011;39717;47.324;8.788;2023-04-21T09:09:56;10.97;;;8.57;;
50815;SDS011;39717;47.324;8.788;2023-04-21T09:12:24;9.80;;;8.77;;
50815;SDS011;39717;47.324;8.788;2023-04-21T09:14:51;9.87;;;8.10;;
50815;SDS011;39717;47.324;8.788;2023-04-21T09:17:17;10.53;;;8.30;;
50815;SDS011;39717;47.324;8.788;2023-04-21T09:19:45;9.00;;;7.60;;
50815;SDS011;39717;47.324;8.788;2023-04-21T09:22:14;9.67;;;8.33;;
50815;SDS011;39717;47.324;8.788;2023-04-21T09:24:44;9.57;;;8.47;;
50815;SDS011;39717;47.324;8.788;2023-04-21T09:27:14;10.33;;;8.67;;
50815;SDS011;39717;47.324;8.788;2023-04-21T09:29:45;9.93;;;7.97;;
50815;SDS011;39717;47.324;8.788;2023-04-21T09:32:17;8.17;;;7.30;;
50815;SDS011;39717;47.324;8.788;2023-04-21T09:34:44;8.53;;;7.40;;
50815;SDS011;39717;47.324;8.788;2023-04-21T09:37:10;9.67;;;7.60;;
50815;SDS011;39717;47.324;8.788;2023-04-21T09:39:38;8.53;;;6.87;;
50815;SDS011;39717;47.324;8.788;2023-04-21T09:42:10;8.73;;;7.40;;
50815;SDS011;39717;47.324;8.788;2023-04-21T09:44:35;8.17;;;7.20;;
50815;SDS011;39717;47.324;8.788;2023-04-21T09:47:03;8.03;;;6.37;;
50815;SDS011;39717;47.324;8.788;2023-04-21T09:49:30;8.37;;;7.47;;
50815;SDS011;39717;47.324;8.788;2023-04-21T09:52:00;16.17;;;12.33;;
50815;SDS011;39717;47.324;8.788;2023-04-21T09:54:28;16.00;;;12.50;;
50815;SDS011;39717;47.324;8.788;2023-04-21T09:56:59;10.23;;;8.73;;
50815;SDS011;39717;47.324;8.788;2023-04-21T09:59:28;10.10;;;8.97;;
50815;SDS011;39717;47.324;8.788;2023-04-21T10:02:05;8.67;;;7.30;;
50815;SDS011;39717;47.324;8.788;2023-04-21T10:04:32;8.40;;;7.50;;
50815;SDS011;39717;47.324;8.788;2023-04-21T10:07:00;8.33;;;7.10;;
50815;SDS011;39717;47.324;8.788;2023-04-21T10:09:30;7.90;;;7.10;;
50815;SDS011;39717;47.324;8.788;2023-04-21T10:11:58;7.63;;;6.87;;
50815;SDS011;39717;47.324;8.788;2023-04-21T10:14:26;8.07;;;6.80;;
50815;SDS011;39717;47.324;8.788;2023-04-21T10:16:56;7.43;;;6.73;;
50815;SDS011;39717;47.324;8.788;2023-04-21T10:19:23;8.73;;;7.80;;
50815;SDS011;39717;47.324;8.788;2023-04-21T10:21:51;7.50;;;6.73;;
50815;SDS011;39717;47.324;8.788;2023-04-21T10:24:20;8.20;;;7.33;;
50815;SDS011;39717;47.324;8.788;2023-04-21T10:26:46;9.43;;;7.80;;
50815;SDS011;39717;47.324;8.788;2023-04-21T10:29:14;8.53;;;7.00;;
50815;SDS011;39717;47.324;8.788;2023-04-21T10:34:13;7.17;;;6.43;;
50815;SDS011;39717;47.324;8.788;2023-04-21T10:36:47;6.97;;;6.20;;
50815;SDS011;39717;47.324;8.788;2023-04-21T10:39:29;6.00;;;5.50;;
50815;SDS011;39717;47.324;8.788;2023-04-21T10:42:17;5.57;;;5.03;;
50815;SDS011;39717;47.324;8.788;2023-04-21T10:49:56;5.67;;;5.17;;
50815;SDS011;39717;47.324;8.788;2023-04-21T10:52:31;6.70;;;5.97;;
50815;SDS011;39717;47.324;8.788;2023-04-21T10:57:23;5.87;;;4.80;;
50815;SDS011;39717;47.324;8.788;2023-04-21T10:59:50;4.70;;;4.30;;
50815;SDS011;39717;47.324;8.788;2023-04-21T11:02:16;5.37;;;4.87;;
50815;SDS011;39717;47.324;8.788;2023-04-21T11:04:43;5.00;;;4.50;;
50815;SDS011;39717;47.324;8.788;2023-04-21T11:07:13;4.83;;;4.43;;
50815;SDS011;39717;47.324;8.788;2023-04-21T11:09:41;4.90;;;4.50;;
50815;SDS011;39717;47.324;8.788;2023-04-21T11:12:10;4.77;;;4.37;;
50815;SDS011;39717;47.324;8.788;2023-04-21T11:14:37;5.10;;;4.60;;
50815;SDS011;39717;47.324;8.788;2023-04-21T11:17:04;5.47;;;4.97;;
50815;SDS011;39717;47.324;8.788;2023-04-21T11:19:30;7.90;;;5.33;;
50815;SDS011;39717;47.324;8.788;2023-04-21T11:21:57;5.10;;;4.60;;
50815;SDS011;39717;47.324;8.788;2023-04-21T11:24:23;5.10;;;4.60;;
50815;SDS011;39717;47.324;8.788;2023-04-21T11:26:50;7.10;;;4.83;;
50815;SDS011;39717;47.324;8.788;2023-04-21T11:29:16;4.90;;;4.50;;
50815;SDS011;39717;47.324;8.788;2023-04-21T11:31:44;4.87;;;4.47;;
50815;SDS011;39717;47.324;8.788;2023-04-21T11:34:13;4.70;;;4.30;;
50815;SDS011;39717;47.324;8.788;2023-04-21T11:36:43;4.93;;;4.53;;
50815;SDS011;39717;47.324;8.788;2023-04-21T11:39:14;8.27;;;4.67;;
50815;SDS011;39717;47.324;8.788;2023-04-21T11:41:42;5.10;;;4.50;;
50815;SDS011;39717;47.324;8.788;2023-04-21T11:44:09;5.13;;;4.73;;
50815;SDS011;39717;47.324;8.788;2023-04-21T11:46:36;4.77;;;4.37;;
50815;SDS011;39717;47.324;8.788;2023-04-21T11:49:03;5.40;;;4.93;;
50815;SDS011;39717;47.324;8.788;2023-04-21T11:54:01;5.23;;;4.73;;
50815;SDS011;39717;47.324;8.788;2023-04-21T11:56:29;6.70;;;5.63;;
50815;SDS011;39717;47.324;8.788;2023-04-21T11:59:00;6.53;;;4.77;;
50815;SDS011;39717;47.324;8.788;2023-04-21T12:01:26;5.73;;;5.23;;
50815;SDS011;39717;47.324;8.788;2023-04-21T12:03:53;5.93;;;5.33;;
50815;SDS011;39717;47.324;8.788;2023-04-21T12:06:23;6.97;;;6.37;;
50815;SDS011;39717;47.324;8.788;2023-04-21T12:09:00;7.40;;;6.70;;
50815;SDS011;39717;47.324;8.788;2023-04-21T12:11:28;7.63;;;6.57;;
50815;SDS011;39717;47.324;8.788;2023-04-21T12:13:57;9.03;;;4.97;;
50815;SDS011;39717;47.324;8.788;2023-04-21T12:16:27;7.00;;;6.30;;
50815;SDS011;39717;47.324;8.788;2023-04-21T12:18:54;7.77;;;6.07;;
50815;SDS011;39717;47.324;8.788;2023-04-21T12:21:25;7.43;;;6.73;;
50815;SDS011;39717;47.324;8.788;2023-04-21T12:23:51;7.40;;;6.70;;
50815;SDS011;39717;47.324;8.788;2023-04-21T12:26:17;7.00;;;6.30;;
50815;SDS011;39717;47.324;8.788;2023-04-21T12:28:44;7.10;;;6.40;;
50815;SDS011;39717;47.324;8.788;2023-04-21T12:31:10;7.97;;;7.17;;
50815;SDS011;39717;47.324;8.788;2023-04-21T12:33:36;7.23;;;6.63;;
50815;SDS011;39717;47.324;8.788;2023-04-21T12:36:02;7.07;;;6.20;;
50815;SDS011;39717;47.324;8.788;2023-04-21T12:38:28;5.97;;;5.47;;
50815;SDS011;39717;47.324;8.788;2023-04-21T12:40:54;7.03;;;6.33;;
50815;SDS011;39717;47.324;8.788;2023-04-21T12:43:21;7.00;;;6.30;;
50815;SDS011;39717;47.324;8.788;2023-04-21T12:45:47;7.23;;;6.53;;
50815;SDS011;39717;47.324;8.788;2023-04-21T12:48:16;7.23;;;6.53;;
50815;SDS011;39717;47.324;8.788;2023-04-21T12:50:43;7.73;;;7.03;;
50815;SDS011;39717;47.324;8.788;2023-04-21T12:53:11;8.30;;;7.50;;
50815;SDS011;39717;47.324;8.788;2023-04-21T12:55:37;7.50;;;6.77;;
50815;SDS011;39717;47.324;8.788;2023-04-21T12:58:03;12.13;;;7.30;;
50815;SDS011;39717;47.324;8.788;2023-04-21T13:00:29;9.13;;;7.03;;
50815;SDS011;39717;47.324;8.788;2023-04-21T13:02:57;8.07;;;7.27;;
50815;SDS011;39717;47.324;8.788;2023-04-21T13:05:23;8.07;;;7.27;;
50815;SDS011;39717;47.324;8.788;2023-04-21T13:07:49;8.27;;;7.47;;
50815;SDS011;39717;47.324;8.788;2023-04-21T13:10:17;8.57;;;7.03;;
50815;SDS011;39717;47.324;8.788;2023-04-21T13:12:43;8.27;;;7.40;;
50815;SDS011;39717;47.324;8.788;2023-04-21T13:15:09;8.10;;;7.23;;
50815;SDS011;39717;47.324;8.788;2023-04-21T13:17:36;7.30;;;6.60;;
50815;SDS011;39717;47.324;8.788;2023-04-21T13:20:02;7.60;;;6.90;;
50815;SDS011;39717;47.324;8.788;2023-04-21T13:22:28;10.33;;;8.00;;
50815;SDS011;39717;47.324;8.788;2023-04-21T13:24:55;10.13;;;7.63;;
50815;SDS011;39717;47.324;8.788;2023-04-21T13:27:21;11.90;;;9.43;;
50815;SDS011;39717;47.324;8.788;2023-04-21T13:29:47;8.13;;;7.40;;
50815;SDS011;39717;47.324;8.788;2023-04-21T13:32:13;8.27;;;7.57;;
50815;SDS011;39717;47.324;8.788;2023-04-21T13:34:39;11.47;;;8.60;;
50815;SDS011;39717;47.324;8.788;2023-04-21T13:37:05;9.00;;;8.13;;
50815;SDS011;39717;47.324;8.788;2023-04-21T13:39:35;9.63;;;8.53;;
50815;SDS011;39717;47.324;8.788;2023-04-21T13:42:01;12.77;;;9.77;;
50815;SDS011;39717;47.324;8.788;2023-04-21T13:44:28;11.20;;;10.00;;
50815;SDS011;39717;47.324;8.788;2023-04-21T13:46:54;12.27;;;10.50;;
50815;SDS011;39717;47.324;8.788;2023-04-21T13:49:21;11.10;;;9.97;;
50815;SDS011;39717;47.324;8.788;2023-04-21T13:51:47;13.47;;;11.03;;
50815;SDS011;39717;47.324;8.788;2023-04-21T13:54:13;12.67;;;10.07;;
50815;SDS011;39717;47.324;8.788;2023-04-21T13:56:40;11.00;;;9.47;;
50815;SDS011;39717;47.324;8.788;2023-04-21T13:59:06;12.10;;;10.13;;
50815;SDS011;39717;47.324;8.788;2023-04-21T14:01:34;12.17;;;10.33;;
50815;SDS011;39717;47.324;8.788;2023-04-21T14:04:01;11.83;;;10.03;;
50815;SDS011;39717;47.324;8.788;2023-04-21T14:06:28;11.50;;;9.77;;
50815;SDS011;39717;47.324;8.788;2023-04-21T14:08:54;11.27;;;10.00;;
50815;SDS011;39717;47.324;8.788;2023-04-21T14:11:20;14.10;;;10.67;;
50815;SDS011;39717;47.324;8.788;2023-04-21T14:13:46;12.03;;;10.63;;
50815;SDS011;39717;47.324;8.788;2023-04-21T14:16:12;11.93;;;9.77;;
50815;SDS011;39717;47.324;8.788;2023-04-21T14:18:38;11.57;;;10.27;;
50815;SDS011;39717;47.324;8.788;2023-04-21T14:21:09;11.20;;;9.20;;
50815;SDS011;39717;47.324;8.788;2023-04-21T14:23:35;11.93;;;10.57;;
50815;SDS011;39717;47.324;8.788;2023-04-21T14:26:02;13.17;;;11.37;;
50815;SDS011;39717;47.324;8.788;2023-04-21T14:28:29;12.00;;;10.80;;
50815;SDS011;39717;47.324;8.788;2023-04-21T14:30:55;14.93;;;12.10;;
50815;SDS011;39717;47.324;8.788;2023-04-21T14:33:21;12.97;;;11.00;;
50815;SDS011;39717;47.324;8.788;2023-04-21T14:35:47;18.80;;;14.23;;
50815;SDS011;39717;47.324;8.788;2023-04-21T14:38:13;11.90;;;10.70;;
50815;SDS011;39717;47.324;8.788;2023-04-21T14:40:40;19.60;;;14.20;;